createdAt,value
2022-09-28T00:01:23.480Z,90.22
2022-09-28T00:03:54.693Z,90.31
2022-09-28T00:06:25.409Z,90.37
2022-09-28T00:08:53.499Z,90.43
2022-09-28T00:11:23.409Z,90.43
2022-09-28T00:13:53.956Z,90.26
2022-09-28T00:16:25.835Z,90.23
2022-09-28T00:18:54.377Z,90.18
2022-09-28T00:21:24.649Z,90.14
2022-09-28T00:24:12.786Z,90.07
2022-09-28T00:27:01.522Z,89.95
2022-09-28T00:29:35.318Z,90.08
2022-09-28T00:32:10.657Z,90.13
2022-09-28T00:34:42.599Z,90.29
2022-09-28T00:37:11.474Z,90.29
2022-09-28T00:39:43.529Z,90.37
2022-09-28T00:42:26.314Z,90.50
2022-09-28T00:45:01.875Z,90.62
2022-09-28T00:47:56.387Z,90.70
2022-09-28T00:50:34.132Z,90.83
2022-09-28T00:53:13.045Z,90.83
2022-09-28T00:55:50.510Z,90.83
2022-09-28T00:58:30.084Z,90.84
2022-09-28T01:01:01.123Z,90.87
2022-09-28T01:03:30.361Z,90.89
2022-09-28T01:06:02.534Z,90.86
2022-09-28T01:08:33.855Z,90.84
2022-09-28T01:11:02.219Z,90.79
2022-09-28T01:13:32.215Z,90.77
2022-09-28T01:16:08.277Z,90.72
2022-09-28T01:18:55.706Z,90.71
2022-09-28T01:21:25.136Z,90.68
2022-09-28T01:24:00.161Z,90.67
2022-09-28T01:26:56.423Z,90.58
2022-09-28T01:29:34.440Z,90.49
2022-09-28T01:32:32.310Z,90.57
2022-09-28T01:35:07.085Z,90.50
2022-09-28T01:38:09.700Z,90.43
2022-09-28T01:40:37.991Z,90.39
2022-09-28T01:43:11.660Z,90.35
2022-09-28T01:45:46.659Z,90.32
2022-09-28T01:48:24.668Z,90.29
2022-09-28T01:50:58.022Z,90.27
2022-09-28T01:53:41.340Z,90.26
2022-09-28T01:56:42.096Z,90.23
2022-09-28T01:59:20.799Z,90.22
2022-09-28T02:02:03.976Z,90.24
2022-09-28T02:04:39.712Z,90.18
2022-09-28T02:07:24.513Z,90.16
2022-09-28T02:09:58.580Z,90.20
2022-09-28T02:12:35.013Z,90.12
2022-09-28T02:15:42.391Z,90.09
2022-09-28T02:18:10.663Z,90.09
2022-09-28T02:20:41.165Z,90.09
2022-09-28T02:23:10.394Z,90.08
2022-09-28T02:25:47.281Z,90.03
2022-09-28T02:28:15.392Z,90.03
2022-09-28T02:30:44.764Z,90.07
2022-09-28T02:33:28.498Z,90.04
2022-09-28T02:35:58.645Z,90.06
2022-09-28T02:38:26.873Z,90.01
2022-09-28T02:41:05.656Z,90.00
2022-09-28T02:43:45.997Z,89.97
2022-09-28T02:46:28.950Z,89.95
2022-09-28T02:49:38.946Z,89.98
2022-09-28T02:52:25.220Z,89.92
2022-09-28T02:55:44.883Z,90.04
2022-09-28T02:58:37.734Z,90.02
2022-09-28T03:01:25.281Z,90.00
2022-09-28T03:04:02.420Z,90.05
2022-09-28T03:06:46.239Z,90.12
2022-09-28T03:09:22.962Z,90.06
2022-09-28T03:11:56.339Z,90.12
2022-09-28T03:14:24.574Z,90.11
2022-09-28T03:16:55.563Z,89.97
2022-09-28T03:19:29.029Z,90.05
2022-09-28T03:21:56.996Z,89.99
2022-09-28T03:24:25.122Z,89.87
2022-09-28T03:26:53.187Z,89.90
2022-09-28T03:29:21.243Z,89.91
2022-09-28T03:31:52.850Z,89.91
2022-09-28T03:34:20.852Z,89.90
2022-09-28T03:36:49.077Z,89.83
2022-09-28T03:39:16.892Z,89.75
2022-09-28T03:41:44.856Z,89.82
2022-09-28T03:44:12.956Z,89.82
2022-09-28T03:46:41.026Z,89.79
2022-09-28T03:49:10.692Z,89.71
2022-09-28T03:51:38.865Z,89.74
2022-09-28T03:54:09.852Z,89.78
2022-09-28T03:56:37.698Z,89.87
2022-09-28T03:59:06.222Z,89.85
2022-09-28T04:01:34.089Z,89.90
2022-09-28T04:04:02.021Z,89.91
2022-09-28T04:06:31.000Z,89.98
2022-09-28T04:08:58.782Z,89.94
2022-09-28T04:11:26.718Z,89.98
2022-09-28T04:13:54.796Z,90.00
2022-09-28T04:16:24.361Z,89.94
2022-09-28T04:18:59.963Z,89.96
2022-09-28T04:21:50.637Z,89.91
2022-09-28T04:24:20.480Z,89.88
2022-09-28T04:26:49.521Z,89.76
2022-09-28T04:29:19.269Z,89.74
2022-09-28T04:31:55.804Z,89.76
2022-09-28T04:34:44.443Z,89.71
2022-09-28T04:37:13.052Z,89.58
2022-09-28T04:39:43.122Z,89.44
2022-09-28T04:42:14.607Z,89.38
2022-09-28T04:44:42.479Z,89.44
2022-09-28T04:47:10.646Z,89.50
2022-09-28T04:49:57.164Z,89.49
2022-09-28T04:52:36.966Z,89.60
2022-09-28T04:55:06.519Z,89.47
2022-09-28T04:57:35.772Z,89.37
2022-09-28T05:00:04.799Z,89.34
2022-09-28T05:02:35.569Z,89.38
2022-09-28T05:05:23.681Z,89.46
2022-09-28T05:08:30.457Z,89.58
2022-09-28T05:11:00.439Z,89.61
2022-09-28T05:13:29.461Z,89.57
2022-09-28T05:16:03.065Z,89.68
2022-09-28T05:18:34.887Z,89.60
2022-09-28T05:21:09.473Z,89.63
2022-09-28T05:23:37.303Z,89.73
2022-09-28T05:26:08.447Z,89.78
2022-09-28T05:28:37.058Z,89.59
2022-09-28T05:31:32.643Z,89.61
2022-09-28T05:34:13.873Z,89.72
2022-09-28T05:36:42.989Z,89.76
2022-09-28T05:39:10.801Z,89.75
2022-09-28T05:41:38.619Z,89.77
2022-09-28T05:44:06.617Z,89.63
2022-09-28T05:46:35.620Z,89.33
2022-09-28T05:49:03.774Z,89.16
2022-09-28T05:51:31.929Z,89.18
2022-09-28T05:54:03.278Z,89.03
2022-09-28T05:56:34.408Z,88.63
2022-09-28T05:59:06.260Z,88.52
2022-09-28T06:01:34.178Z,88.37
2022-09-28T06:04:03.129Z,88.47
2022-09-28T06:06:32.190Z,88.41
2022-09-28T06:09:00.160Z,88.38
2022-09-28T06:11:48.397Z,88.39
2022-09-28T06:14:24.191Z,88.45
2022-09-28T06:16:52.595Z,88.43
2022-09-28T06:19:20.471Z,88.19
2022-09-28T06:22:00.805Z,88.36
2022-09-28T06:24:28.977Z,88.53
2022-09-28T06:26:56.764Z,88.52
2022-09-28T06:29:24.866Z,88.59
2022-09-28T06:31:53.478Z,88.61
2022-09-28T06:34:21.677Z,88.41
2022-09-28T06:36:49.947Z,88.54
2022-09-28T06:39:17.978Z,88.54
2022-09-28T06:41:45.749Z,88.35
2022-09-28T06:44:16.858Z,88.41
2022-09-28T06:47:22.334Z,88.51
2022-09-28T06:50:12.297Z,88.59
2022-09-28T06:53:00.287Z,88.55
2022-09-28T06:55:54.809Z,88.53
2022-09-28T06:58:23.895Z,88.41
2022-09-28T07:00:52.146Z,88.51
2022-09-28T07:03:22.762Z,87.92
2022-09-28T07:06:24.273Z,87.52
2022-09-28T07:09:32.383Z,87.52
2022-09-28T07:12:25.508Z,87.64
2022-09-28T07:15:01.124Z,87.56
2022-09-28T07:17:29.812Z,87.37
2022-09-28T07:20:09.215Z,87.48
2022-09-28T07:22:43.958Z,87.45
2022-09-28T07:25:17.764Z,87.54
2022-09-28T07:27:50.493Z,87.65
2022-09-28T07:30:50.896Z,87.60
2022-09-28T07:33:35.769Z,88.22
2022-09-28T07:36:20.944Z,88.08
2022-09-28T07:38:49.051Z,87.32
2022-09-28T07:41:22.559Z,87.16
2022-09-28T07:43:52.698Z,86.78
2022-09-28T07:46:21.370Z,86.95
2022-09-28T07:48:56.583Z,86.96
2022-09-28T07:51:33.997Z,87.05
2022-09-28T07:54:31.410Z,86.86
2022-09-28T07:57:28.734Z,86.54
2022-09-28T08:00:23.011Z,85.78
2022-09-28T08:02:51.389Z,85.12
2022-09-28T08:05:24.032Z,85.38
2022-09-28T08:07:53.131Z,85.69
2022-09-28T08:10:21.210Z,85.69
2022-09-28T08:13:16.490Z,85.71
2022-09-28T08:16:01.184Z,85.43
2022-09-28T08:18:36.253Z,85.21
2022-09-28T08:21:25.167Z,84.82
2022-09-28T08:23:53.376Z,84.37
2022-09-28T08:26:21.918Z,85.32
2022-09-28T08:28:51.309Z,83.73
2022-09-28T08:31:37.950Z,83.45
2022-09-28T08:34:13.774Z,83.09
2022-09-28T08:37:00.849Z,82.75
2022-09-28T08:40:17.421Z,82.20
2022-09-28T08:43:39.804Z,81.62
2022-09-28T08:46:35.506Z,81.39
2022-09-28T08:49:37.207Z,83.42
2022-09-28T08:52:40.133Z,82.07
2022-09-28T08:55:47.190Z,81.19
2022-09-28T08:58:26.133Z,80.91
2022-09-28T09:00:54.636Z,80.17
2022-09-28T09:03:39.528Z,81.06
2022-09-28T09:06:44.904Z,79.15
2022-09-28T09:10:13.501Z,79.57
2022-09-28T09:12:55.055Z,80.19
2022-09-28T09:15:43.413Z,80.17
2022-09-28T09:18:35.513Z,79.66
2022-09-28T09:21:47.822Z,80.65
2022-09-28T09:24:27.466Z,79.08
2022-09-28T09:27:06.995Z,78.54
2022-09-28T09:30:04.200Z,76.95
2022-09-28T09:32:47.874Z,76.22
2022-09-28T09:35:58.816Z,77.06
2022-09-28T09:38:54.508Z,76.67
2022-09-28T09:42:15.561Z,76.25
2022-09-28T09:45:28.831Z,75.37
2022-09-28T09:48:27.783Z,75.59
2022-09-28T09:51:05.041Z,75.24
2022-09-28T09:53:59.896Z,75.94
2022-09-28T09:56:38.602Z,73.58
2022-09-28T09:59:15.557Z,73.24
2022-09-28T10:02:15.605Z,74.44
2022-09-28T10:04:55.234Z,73.51
2022-09-28T10:07:43.272Z,72.75
2022-09-28T10:10:19.211Z,73.23
2022-09-28T10:12:51.376Z,74.85
2022-09-28T10:15:31.453Z,74.30
2022-09-28T10:18:21.468Z,74.29
2022-09-28T10:21:18.610Z,73.93
2022-09-28T10:23:58.901Z,73.42
2022-09-28T10:26:53.158Z,74.58
2022-09-28T10:29:25.037Z,74.16
2022-09-28T10:31:54.806Z,73.69
2022-09-28T10:34:35.747Z,73.81
2022-09-28T10:37:11.425Z,72.38
2022-09-28T10:40:43.578Z,72.25
2022-09-28T10:43:25.105Z,72.21
2022-09-28T10:46:11.187Z,73.22
2022-09-28T10:49:02.230Z,72.59
2022-09-28T10:52:00.821Z,72.38
2022-09-28T10:54:34.554Z,72.45
2022-09-28T10:57:02.563Z,72.73
2022-09-28T10:59:47.621Z,74.20
2022-09-28T11:02:35.933Z,71.93
2022-09-28T11:05:33.973Z,71.61
2022-09-28T11:08:06.881Z,72.06
2022-09-28T11:10:40.723Z,72.21
2022-09-28T11:13:12.740Z,72.06
2022-09-28T11:15:44.426Z,72.98
2022-09-28T11:18:26.425Z,74.35
2022-09-28T11:21:11.286Z,74.62
2022-09-28T11:23:42.341Z,75.25
2022-09-28T11:26:19.029Z,75.24
2022-09-28T11:28:52.448Z,74.87
2022-09-28T11:31:29.037Z,74.95
2022-09-28T11:34:36.442Z,74.47
2022-09-28T11:37:54.170Z,74.11
2022-09-28T11:40:44.328Z,73.49
2022-09-28T11:43:41.684Z,73.49
2022-09-28T11:46:14.253Z,73.65
2022-09-28T11:48:51.237Z,72.64
2022-09-28T11:51:32.232Z,72.88
2022-09-28T11:54:14.638Z,73.21
2022-09-28T11:56:50.055Z,73.79
2022-09-28T11:59:27.795Z,74.46
2022-09-28T12:01:59.725Z,75.32
2022-09-28T12:04:43.857Z,75.16
2022-09-28T12:07:23.282Z,75.87
2022-09-28T12:10:10.310Z,76.12
2022-09-28T12:12:45.597Z,76.31
2022-09-28T12:15:28.460Z,76.11
2022-09-28T12:18:03.802Z,76.46
2022-09-28T12:20:50.277Z,76.66
2022-09-28T12:23:25.984Z,77.00
2022-09-28T12:25:59.443Z,77.03
2022-09-28T12:28:46.012Z,77.36
2022-09-28T12:31:26.493Z,77.40
2022-09-28T12:33:55.941Z,78.24
2022-09-28T12:36:42.750Z,77.74
2022-09-28T12:39:46.965Z,77.74
2022-09-28T12:42:39.423Z,76.66
2022-09-28T12:45:30.970Z,76.29
2022-09-28T12:48:21.825Z,75.44
2022-09-28T12:51:14.458Z,74.77
2022-09-28T12:54:07.247Z,74.44
2022-09-28T12:56:50.147Z,74.66
2022-09-28T12:59:31.212Z,74.31
2022-09-28T13:02:27.504Z,74.48
2022-09-28T13:05:02.236Z,74.15
2022-09-28T13:07:49.889Z,75.14
2022-09-28T13:10:35.093Z,75.66
2022-09-28T13:13:17.236Z,74.92
2022-09-28T13:16:06.232Z,74.50
2022-09-28T13:18:39.605Z,75.60
2022-09-28T13:21:34.503Z,75.63
2022-09-28T13:24:20.973Z,76.29
2022-09-28T13:26:55.772Z,76.84
2022-09-28T13:29:25.094Z,76.21
2022-09-28T13:31:57.628Z,75.39
2022-09-28T13:34:29.022Z,76.27
2022-09-28T13:37:16.982Z,76.05
2022-09-28T13:39:45.011Z,75.40
2022-09-28T13:42:25.152Z,75.50
2022-09-28T13:45:03.498Z,76.71
2022-09-28T13:47:54.004Z,75.82
2022-09-28T13:50:34.644Z,75.21
2022-09-28T13:53:40.274Z,74.84
2022-09-28T13:56:33.260Z,74.53
2022-09-28T13:59:22.340Z,74.11
2022-09-28T14:01:58.146Z,74.53
2022-09-28T14:04:58.418Z,74.23
2022-09-28T14:07:35.084Z,74.26
2022-09-28T14:10:26.056Z,73.97
2022-09-28T14:12:55.094Z,73.08
2022-09-28T14:15:28.999Z,72.50
2022-09-28T14:18:25.603Z,72.65
2022-09-28T14:21:16.233Z,73.36
2022-09-28T14:24:05.644Z,73.19
2022-09-28T14:27:02.930Z,73.17
2022-09-28T14:29:34.263Z,73.92
2022-09-28T14:32:25.890Z,73.79
2022-09-28T14:35:06.201Z,73.40
2022-09-28T14:37:55.278Z,73.49
2022-09-28T14:40:49.781Z,73.48
2022-09-28T14:43:27.111Z,73.23
2022-09-28T14:46:28.140Z,72.77
2022-09-28T14:49:19.324Z,72.81
2022-09-28T14:51:48.157Z,72.38
2022-09-28T14:54:27.916Z,71.98
2022-09-28T14:57:26.802Z,71.88
2022-09-28T14:59:56.187Z,71.69
2022-09-28T15:02:32.362Z,70.18
2022-09-28T15:05:07.167Z,70.88
2022-09-28T15:07:51.683Z,71.43
2022-09-28T15:10:32.835Z,71.31
2022-09-28T15:13:03.222Z,71.37
2022-09-28T15:15:38.325Z,71.99
2022-09-28T15:18:18.455Z,72.15
2022-09-28T15:20:49.187Z,72.05
2022-09-28T15:23:47.026Z,72.40
2022-09-28T15:26:31.680Z,72.33
2022-09-28T15:29:03.474Z,72.62
2022-09-28T15:31:37.072Z,71.84
2022-09-28T15:34:23.501Z,72.51
2022-09-28T15:36:52.376Z,72.54
2022-09-28T15:39:48.382Z,72.96
2022-09-28T15:42:20.597Z,72.69
2022-09-28T15:45:24.962Z,72.28
2022-09-28T15:48:00.917Z,73.00
2022-09-28T15:50:30.056Z,72.90
2022-09-28T15:53:04.457Z,73.60
2022-09-28T15:55:39.620Z,74.44
2022-09-28T15:58:18.822Z,74.54
2022-09-28T16:00:51.838Z,73.64
2022-09-28T16:03:24.183Z,73.73
2022-09-28T16:06:10.878Z,74.16
2022-09-28T16:08:43.942Z,74.53
2022-09-28T16:11:24.322Z,74.85
2022-09-28T16:13:56.474Z,74.86
2022-09-28T16:16:30.118Z,74.76
2022-09-28T16:19:01.315Z,75.05
2022-09-28T16:21:47.068Z,75.47
2022-09-28T16:24:24.856Z,75.99
2022-09-28T16:27:28.123Z,76.58
2022-09-28T16:30:20.447Z,76.49
2022-09-28T16:33:01.898Z,76.31
2022-09-28T16:35:50.632Z,76.48
2022-09-28T16:38:19.780Z,76.54
2022-09-28T16:40:49.991Z,76.91
2022-09-28T16:43:27.980Z,77.01
2022-09-28T16:45:59.336Z,77.13
2022-09-28T16:48:29.660Z,76.80
2022-09-28T16:50:58.398Z,76.89
2022-09-28T16:53:45.978Z,76.93
2022-09-28T16:56:14.339Z,76.78
2022-09-28T16:58:42.608Z,77.05
2022-09-28T17:01:12.494Z,77.23
2022-09-28T17:03:47.043Z,77.13
2022-09-28T17:06:16.549Z,76.98
2022-09-28T17:08:45.246Z,77.48
2022-09-28T17:11:19.222Z,77.40
2022-09-28T17:13:50.601Z,77.37
2022-09-28T17:19:25.957Z,77.40
2022-09-28T17:21:54.042Z,77.56
2022-09-28T17:24:22.102Z,77.23
2022-09-28T17:26:52.038Z,77.40
2022-09-28T17:29:21.921Z,78.14
2022-09-28T17:31:49.761Z,78.12
2022-09-28T17:34:19.831Z,78.67
2022-09-28T17:36:47.987Z,79.12
2022-09-28T17:39:18.732Z,79.11
2022-09-28T17:41:46.968Z,79.75
2022-09-28T17:44:16.349Z,80.17
2022-09-28T17:46:48.956Z,80.07
2022-09-28T17:49:17.431Z,80.12
2022-09-28T17:51:45.277Z,80.54
2022-09-28T17:54:13.760Z,80.90
2022-09-28T17:56:42.779Z,81.25
2022-09-28T17:59:13.836Z,81.23
2022-09-28T18:01:42.319Z,81.93
2022-09-28T18:04:22.984Z,81.56
2022-09-28T18:07:00.622Z,81.70
2022-09-28T18:09:28.590Z,82.09
2022-09-28T18:12:00.987Z,82.06
2022-09-28T18:14:30.324Z,81.72
2022-09-28T18:16:58.202Z,82.03
2022-09-28T18:19:31.668Z,82.30
2022-09-28T18:22:05.229Z,82.68
2022-09-28T18:24:34.911Z,83.08
2022-09-28T18:27:03.146Z,83.20
2022-09-28T18:29:33.482Z,83.31
2022-09-28T18:32:02.724Z,83.25
2022-09-28T18:34:30.764Z,83.62
2022-09-28T18:37:02.046Z,83.64
2022-09-28T18:39:30.539Z,83.87
2022-09-28T18:41:58.524Z,83.86
2022-09-28T18:44:26.340Z,84.08
2022-09-28T18:46:54.589Z,84.23
2022-09-28T18:49:23.274Z,84.34
2022-09-28T18:51:51.809Z,84.75
2022-09-28T18:54:19.698Z,84.62
2022-09-28T18:56:47.784Z,84.74
2022-09-28T18:59:16.038Z,84.53
2022-09-28T19:01:44.038Z,84.45
2022-09-28T19:04:12.189Z,84.43
2022-09-28T19:06:41.933Z,84.41
2022-09-28T19:09:10.768Z,84.20
2022-09-28T19:11:38.646Z,83.84
2022-09-28T19:14:06.693Z,84.38
2022-09-28T19:16:35.806Z,85.04
2022-09-28T19:19:06.614Z,85.56
2022-09-28T19:21:34.424Z,85.45
2022-09-28T19:24:04.179Z,85.22
2022-09-28T19:26:33.437Z,85.13
2022-09-28T19:29:03.113Z,85.28
2022-09-28T19:31:32.747Z,85.05
2022-09-28T19:34:00.656Z,85.33
2022-09-28T19:36:29.481Z,85.51
2022-09-28T19:39:02.189Z,85.40
2022-09-28T19:41:51.819Z,85.59
2022-09-28T19:44:27.405Z,85.86
2022-09-28T19:46:59.103Z,85.95
2022-09-28T19:49:28.308Z,85.99
2022-09-28T19:52:12.298Z,85.82
2022-09-28T19:54:48.411Z,85.60
2022-09-28T19:57:16.454Z,85.56
2022-09-28T19:59:44.506Z,85.57
2022-09-28T20:02:12.415Z,85.68
2022-09-28T20:04:40.416Z,85.67
2022-09-28T20:07:08.217Z,85.74
2022-09-28T20:09:36.192Z,85.80
2022-09-28T20:12:04.024Z,85.62
2022-09-28T20:14:36.570Z,85.35
2022-09-28T20:17:08.154Z,85.42
2022-09-28T20:19:36.174Z,85.23
2022-09-28T20:22:04.078Z,85.57
2022-09-28T20:24:32.671Z,85.32
2022-09-28T20:27:01.591Z,85.59
2022-09-28T20:29:34.039Z,85.42
2022-09-28T20:32:04.258Z,85.44
2022-09-28T20:34:34.138Z,85.52
2022-09-28T20:37:02.135Z,85.80
2022-09-28T20:39:30.340Z,86.25
2022-09-28T20:41:58.213Z,86.41
2022-09-28T20:44:26.077Z,85.70
2022-09-28T20:46:54.148Z,86.15
2022-09-28T20:49:21.961Z,85.97
2022-09-28T20:51:49.683Z,86.10
2022-09-28T20:54:17.729Z,86.09
2022-09-28T20:56:48.168Z,85.78
2022-09-28T20:59:16.451Z,86.22
2022-09-28T21:01:44.636Z,86.78
2022-09-28T21:04:14.552Z,86.97
2022-09-28T21:06:43.185Z,86.95
2022-09-28T21:09:12.516Z,87.07
2022-09-28T21:11:41.772Z,87.22
2022-09-28T21:14:10.434Z,87.07
2022-09-28T21:16:38.623Z,86.97
2022-09-28T21:19:06.597Z,86.73
2022-09-28T21:21:34.821Z,86.54
2022-09-28T21:24:03.312Z,86.75
2022-09-28T21:26:31.680Z,86.84
2022-09-28T21:29:11.148Z,86.77
2022-09-28T21:31:41.717Z,86.74
2022-09-28T21:34:19.483Z,86.61
2022-09-28T21:36:51.195Z,86.46
2022-09-28T21:39:22.924Z,86.18
2022-09-28T21:41:51.143Z,85.97
2022-09-28T21:44:19.079Z,85.47
2022-09-28T21:46:47.560Z,85.24
2022-09-28T21:49:15.575Z,85.68
2022-09-28T21:51:43.584Z,85.69
2022-09-28T21:54:12.158Z,86.00
2022-09-28T21:56:40.124Z,85.99
2022-09-28T21:59:07.932Z,86.11
2022-09-28T22:01:35.962Z,86.24
2022-09-28T22:04:03.868Z,86.39
2022-09-28T22:06:31.585Z,86.39
2022-09-28T22:08:59.569Z,86.17
2022-09-28T22:11:28.761Z,86.15
2022-09-28T22:13:59.113Z,86.17
2022-09-28T22:16:29.487Z,85.98
2022-09-28T22:18:58.747Z,86.04
2022-09-28T22:21:35.238Z,86.03
2022-09-28T22:24:05.952Z,86.02
2022-09-28T22:26:36.506Z,85.92
2022-09-28T22:29:07.399Z,86.03
2022-09-28T22:31:38.329Z,86.14
2022-09-28T22:34:07.399Z,86.14
2022-09-28T22:36:35.593Z,86.15
2022-09-28T22:39:04.777Z,86.06
2022-09-28T22:41:33.044Z,86.00
2022-09-28T22:44:01.324Z,85.91
2022-09-28T22:46:32.278Z,85.66
2022-09-28T22:49:00.891Z,85.46
2022-09-28T22:51:30.223Z,85.03
2022-09-28T22:53:58.780Z,84.89
2022-09-28T22:56:27.271Z,84.58
2022-09-28T22:58:54.965Z,84.38
2022-09-28T23:01:28.824Z,84.19
2022-09-28T23:03:58.143Z,84.06
2022-09-28T23:06:28.241Z,84.11
2022-09-28T23:08:56.046Z,84.23
2022-09-28T23:11:24.153Z,84.28
2022-09-28T23:13:54.130Z,84.28
2022-09-28T23:16:25.055Z,84.20
2022-09-28T23:18:55.219Z,84.09
2022-09-28T23:21:25.431Z,83.74
2022-09-28T23:23:56.552Z,83.77
2022-09-28T23:26:27.219Z,83.84
2022-09-28T23:28:55.719Z,83.81
2022-09-28T23:31:26.646Z,83.85
2022-09-28T23:34:03.241Z,83.92
2022-09-28T23:36:32.023Z,84.01
2022-09-28T23:39:00.067Z,84.01
2022-09-28T23:41:28.107Z,84.05
2022-09-28T23:43:55.881Z,84.42
2022-09-28T23:46:24.168Z,84.85
2022-09-28T23:48:52.110Z,85.03
2022-09-28T23:51:20.057Z,85.40
2022-09-28T23:53:48.154Z,86.00
2022-09-28T23:56:16.030Z,86.26
2022-09-28T23:58:43.943Z,86.55
